createdAt,value
2022-10-04T00:00:33.029Z,3.08
2022-10-04T00:03:06.426Z,2.50
2022-10-04T00:05:33.431Z,2.63
2022-10-04T00:08:04.737Z,3.10
2022-10-04T00:10:32.988Z,3.10
2022-10-04T00:13:01.248Z,3.20
2022-10-04T00:15:29.868Z,3.17
2022-10-04T00:18:38.927Z,2.90
2022-10-04T00:21:06.828Z,3.17
2022-10-04T00:23:36.627Z,3.17
2022-10-04T00:26:05.207Z,2.40
2022-10-04T00:28:43.427Z,3.10
2022-10-04T00:31:29.921Z,2.70
2022-10-04T00:34:08.891Z,3.10
2022-10-04T00:36:46.178Z,2.70
2022-10-04T00:39:18.091Z,2.53
2022-10-04T00:41:57.649Z,2.60
2022-10-04T00:44:47.567Z,3.00
2022-10-04T00:47:50.407Z,3.15
2022-10-04T00:50:40.254Z,3.22
2022-10-04T00:53:19.176Z,2.88
2022-10-04T00:55:51.709Z,2.90
2022-10-04T00:58:27.370Z,3.13
2022-10-04T01:00:54.459Z,2.92
2022-10-04T01:03:36.108Z,3.30
2022-10-04T01:06:05.571Z,3.13
2022-10-04T01:08:47.626Z,3.00
2022-10-04T01:11:17.653Z,3.40
2022-10-04T01:13:54.128Z,3.17
2022-10-04T01:16:28.776Z,3.30
2022-10-04T01:18:56.338Z,3.17
2022-10-04T01:21:29.548Z,3.03
2022-10-04T01:23:59.488Z,3.17
2022-10-04T01:26:35.165Z,2.95
2022-10-04T01:29:16.427Z,3.08
2022-10-04T01:31:47.765Z,2.80
2022-10-04T01:34:25.068Z,3.10
2022-10-04T01:36:58.069Z,3.47
2022-10-04T01:39:26.009Z,2.97
2022-10-04T01:41:57.369Z,3.13
2022-10-04T01:44:41.129Z,3.10
2022-10-04T01:47:19.846Z,3.20
2022-10-04T01:49:46.712Z,3.33
2022-10-04T01:52:20.550Z,2.90
2022-10-04T01:54:50.568Z,3.38
2022-10-04T01:57:24.589Z,3.08
2022-10-04T02:00:18.688Z,3.53
2022-10-04T02:03:19.307Z,3.15
2022-10-04T02:05:51.227Z,3.33
2022-10-04T02:08:18.631Z,3.00
2022-10-04T02:10:45.792Z,3.28
2022-10-04T02:13:15.507Z,3.03
2022-10-04T02:15:42.386Z,2.80
2022-10-04T02:18:13.053Z,3.22
2022-10-04T02:20:40.571Z,3.20
2022-10-04T02:23:07.468Z,3.45
2022-10-04T02:25:36.310Z,3.13
2022-10-04T02:28:03.607Z,3.60
2022-10-04T02:30:36.080Z,3.10
2022-10-04T02:33:02.988Z,3.17
2022-10-04T02:35:31.307Z,2.67
2022-10-04T02:38:22.308Z,3.13
2022-10-04T02:41:01.808Z,3.50
2022-10-04T02:43:46.209Z,3.40
2022-10-04T02:46:20.725Z,3.13
2022-10-04T02:48:48.548Z,3.67
2022-10-04T02:51:39.961Z,3.40
2022-10-04T02:54:33.958Z,3.60
2022-10-04T02:57:01.425Z,3.17
2022-10-04T02:59:28.846Z,3.20
2022-10-04T03:01:59.117Z,3.55
2022-10-04T03:04:34.011Z,3.30
2022-10-04T03:07:02.229Z,3.65
2022-10-04T03:09:30.188Z,3.80
2022-10-04T03:11:57.175Z,3.72
2022-10-04T03:14:27.708Z,3.30
2022-10-04T03:16:56.007Z,3.90
2022-10-04T03:19:23.828Z,3.83
2022-10-04T03:21:53.128Z,3.67
2022-10-04T03:24:29.231Z,4.00
2022-10-04T03:26:57.050Z,3.85
2022-10-04T03:29:25.747Z,3.63
2022-10-04T03:31:53.413Z,3.53
2022-10-04T03:34:21.928Z,3.65
2022-10-04T03:36:49.551Z,3.70
2022-10-04T03:39:27.230Z,3.65
2022-10-04T03:41:54.027Z,3.63
2022-10-04T03:44:21.731Z,3.60
2022-10-04T03:46:48.549Z,4.15
2022-10-04T03:49:23.888Z,3.10
2022-10-04T03:51:50.813Z,3.30
2022-10-04T03:54:20.868Z,3.80
2022-10-04T03:56:47.788Z,3.70
2022-10-04T03:59:16.608Z,3.50
2022-10-04T04:01:57.080Z,3.42
2022-10-04T04:04:44.507Z,3.97
2022-10-04T04:07:21.329Z,3.80
2022-10-04T04:10:40.630Z,3.97
2022-10-04T04:13:32.468Z,3.67
2022-10-04T04:16:01.203Z,3.67
2022-10-04T04:18:33.427Z,3.70
2022-10-04T04:21:01.974Z,3.67
2022-10-04T04:23:33.034Z,3.63
2022-10-04T04:26:39.411Z,3.55
2022-10-04T04:29:07.731Z,3.67
2022-10-04T04:31:44.111Z,3.90
2022-10-04T04:34:51.287Z,3.90
2022-10-04T04:37:18.149Z,3.97
2022-10-04T04:39:49.208Z,3.45
2022-10-04T04:42:18.236Z,3.63
2022-10-04T04:44:49.410Z,3.70
2022-10-04T04:47:29.288Z,3.80
2022-10-04T04:49:57.589Z,3.90
2022-10-04T04:52:28.088Z,3.75
2022-10-04T04:54:55.071Z,4.05
2022-10-04T04:57:21.867Z,4.03
2022-10-04T04:59:51.299Z,3.53
2022-10-04T05:02:37.235Z,3.60
2022-10-04T05:05:21.513Z,3.30
2022-10-04T05:07:48.449Z,3.60
2022-10-04T05:10:34.012Z,3.90
2022-10-04T05:13:01.628Z,3.57
2022-10-04T05:15:32.092Z,3.72
2022-10-04T05:17:59.551Z,3.70
2022-10-04T05:20:26.748Z,3.60
2022-10-04T05:22:53.548Z,3.65
2022-10-04T05:25:33.812Z,3.33
2022-10-04T05:28:00.940Z,3.45
2022-10-04T05:30:57.051Z,3.63
2022-10-04T05:33:30.631Z,3.47
2022-10-04T05:36:12.467Z,3.42
2022-10-04T05:39:15.395Z,4.10
2022-10-04T05:41:49.049Z,3.47
2022-10-04T05:44:46.333Z,4.18
2022-10-04T05:47:13.181Z,3.58
2022-10-04T05:49:44.261Z,3.95
2022-10-04T05:52:36.107Z,3.63
2022-10-04T05:55:28.850Z,3.50
2022-10-04T05:58:19.334Z,3.67
2022-10-04T06:01:10.715Z,3.70
2022-10-04T06:04:02.329Z,3.45
2022-10-04T06:06:41.168Z,3.90
2022-10-04T06:09:37.369Z,3.70
2022-10-04T06:12:17.489Z,3.60
2022-10-04T06:15:20.273Z,3.50
2022-10-04T06:18:03.728Z,3.08
2022-10-04T06:20:54.997Z,3.00
2022-10-04T06:23:21.894Z,2.92
2022-10-04T06:26:12.389Z,2.80
2022-10-04T06:28:59.387Z,2.90
2022-10-04T06:31:48.828Z,3.10
2022-10-04T06:34:41.870Z,2.60
2022-10-04T06:37:23.508Z,2.90
2022-10-04T06:40:01.915Z,2.63
2022-10-04T06:42:49.411Z,3.50
2022-10-04T06:45:29.695Z,2.95
2022-10-04T06:48:05.071Z,3.00
2022-10-04T06:50:34.628Z,2.90
2022-10-04T06:53:08.447Z,2.67
2022-10-04T06:55:54.190Z,3.00
2022-10-04T06:58:45.493Z,3.00
2022-10-04T07:01:20.230Z,2.97
2022-10-04T07:03:54.708Z,2.85
2022-10-04T07:07:22.989Z,3.00
2022-10-04T07:09:51.375Z,2.63
2022-10-04T07:12:18.187Z,2.50
2022-10-04T07:14:51.310Z,3.03
2022-10-04T07:17:22.076Z,2.35
2022-10-04T07:19:49.568Z,2.20
2022-10-04T07:22:35.455Z,2.47
2022-10-04T07:25:21.130Z,2.15
2022-10-04T07:28:14.943Z,2.10
2022-10-04T07:30:51.937Z,2.05
2022-10-04T07:33:22.288Z,2.60
2022-10-04T07:35:52.113Z,2.40
2022-10-04T07:38:21.715Z,2.58
2022-10-04T07:41:09.768Z,2.30
2022-10-04T07:43:50.087Z,2.30
2022-10-04T07:46:37.435Z,1.95
2022-10-04T07:49:04.427Z,2.30
2022-10-04T07:51:41.524Z,2.22
2022-10-04T07:54:30.048Z,2.27
2022-10-04T07:57:18.309Z,2.45
2022-10-04T08:00:05.751Z,2.13
2022-10-04T08:02:47.119Z,2.88
2022-10-04T08:05:32.673Z,2.33
2022-10-04T08:08:19.068Z,2.43
2022-10-04T08:11:00.971Z,2.83
2022-10-04T08:13:46.317Z,2.60
2022-10-04T08:16:36.991Z,2.05
2022-10-04T08:19:22.269Z,2.38
2022-10-04T08:21:56.104Z,2.67
2022-10-04T08:24:52.631Z,2.47
2022-10-04T08:28:08.449Z,2.67
2022-10-04T08:31:02.152Z,2.50
2022-10-04T08:33:53.911Z,3.10
2022-10-04T08:36:46.341Z,2.30
2022-10-04T08:39:39.550Z,2.28
2022-10-04T08:42:24.834Z,1.67
2022-10-04T08:45:26.528Z,2.60
2022-10-04T08:48:24.564Z,2.28
2022-10-04T08:51:15.832Z,2.47
2022-10-04T08:54:05.938Z,2.30
2022-10-04T08:57:13.670Z,2.45
2022-10-04T09:00:01.190Z,1.90
2022-10-04T09:02:30.912Z,2.35
2022-10-04T09:05:14.890Z,1.67
2022-10-04T09:08:00.389Z,1.98
2022-10-04T09:10:45.548Z,2.50
2022-10-04T09:13:38.789Z,2.00
2022-10-04T09:16:24.368Z,2.33
2022-10-04T09:19:30.169Z,2.33
2022-10-04T09:21:56.967Z,1.85
2022-10-04T09:24:29.674Z,2.38
2022-10-04T09:27:12.738Z,2.20
2022-10-04T09:30:04.199Z,2.25
2022-10-04T09:32:49.468Z,1.80
2022-10-04T09:35:36.472Z,1.48
2022-10-04T09:38:36.050Z,1.90
2022-10-04T09:41:27.511Z,1.60
2022-10-04T09:44:04.649Z,1.60
2022-10-04T09:46:58.708Z,1.77
2022-10-04T09:50:04.889Z,1.23
2022-10-04T09:52:50.310Z,2.10
2022-10-04T09:55:40.509Z,2.30
2022-10-04T09:58:32.248Z,1.95
2022-10-04T10:01:29.539Z,2.03
2022-10-04T10:04:33.988Z,2.00
2022-10-04T10:07:10.448Z,2.13
2022-10-04T10:10:26.749Z,1.40
2022-10-04T10:13:17.809Z,1.92
2022-10-04T10:16:09.751Z,0.80
2022-10-04T10:18:59.253Z,1.52
2022-10-04T10:22:10.990Z,1.80
2022-10-04T10:25:15.210Z,1.83
2022-10-04T10:27:50.107Z,1.30
2022-10-04T10:30:26.009Z,1.70
2022-10-04T10:33:01.290Z,1.83
2022-10-04T10:35:46.653Z,2.08
2022-10-04T10:38:35.687Z,1.42
2022-10-04T10:41:39.866Z,2.13
2022-10-04T10:44:20.568Z,2.17
2022-10-04T10:47:09.851Z,1.42
2022-10-04T10:50:13.868Z,2.17
2022-10-04T10:53:16.929Z,1.63
2022-10-04T10:55:52.771Z,2.00
2022-10-04T10:58:46.127Z,1.80
2022-10-04T11:01:21.951Z,1.15
2022-10-04T11:04:24.148Z,1.20
2022-10-04T11:07:14.031Z,1.30
2022-10-04T11:10:06.810Z,5.43
2022-10-04T11:12:56.508Z,4.63
2022-10-04T11:16:01.972Z,3.08
2022-10-04T11:19:02.876Z,2.40
2022-10-04T11:21:55.870Z,13.40
2022-10-04T11:24:47.314Z,13.60
2022-10-04T11:27:50.010Z,11.37
2022-10-04T11:30:26.366Z,8.68
2022-10-04T11:33:30.582Z,6.28
2022-10-04T11:35:58.051Z,3.03
2022-10-04T11:38:48.529Z,2.72
2022-10-04T11:41:20.928Z,3.93
2022-10-04T11:44:26.668Z,9.23
2022-10-04T11:47:10.135Z,5.97
2022-10-04T11:50:00.588Z,4.00
2022-10-04T11:53:08.993Z,3.20
2022-10-04T11:55:43.473Z,2.30
2022-10-04T11:58:27.269Z,2.70
2022-10-04T12:01:30.484Z,2.72
2022-10-04T12:04:11.510Z,4.10
2022-10-04T12:07:15.687Z,3.33
2022-10-04T12:09:49.972Z,3.03
2022-10-04T12:12:55.488Z,2.47
2022-10-04T12:15:31.826Z,1.67
2022-10-04T12:18:27.307Z,1.75
2022-10-04T12:21:07.288Z,1.75
2022-10-04T12:24:13.210Z,1.90
2022-10-04T12:26:49.720Z,2.22
2022-10-04T12:29:53.769Z,2.20
2022-10-04T12:32:27.529Z,2.20
2022-10-04T12:35:29.170Z,1.98
2022-10-04T12:38:33.222Z,2.10
2022-10-04T12:41:28.312Z,2.38
2022-10-04T12:44:15.693Z,2.13
2022-10-04T12:46:49.709Z,2.10
2022-10-04T12:49:38.108Z,2.05
2022-10-04T12:52:27.368Z,2.03
2022-10-04T12:54:54.089Z,1.40
2022-10-04T12:57:28.746Z,1.58
2022-10-04T13:00:20.987Z,1.65
2022-10-04T13:03:24.968Z,1.50
2022-10-04T13:06:29.007Z,2.00
2022-10-04T13:09:20.455Z,1.95
2022-10-04T13:12:33.452Z,2.17
2022-10-04T13:15:19.581Z,1.60
2022-10-04T13:18:09.551Z,1.88
2022-10-04T13:20:40.555Z,2.20
2022-10-04T13:23:44.808Z,1.88
2022-10-04T13:26:30.461Z,1.90
2022-10-04T13:29:10.614Z,1.95
2022-10-04T13:31:49.669Z,1.40
2022-10-04T13:34:17.269Z,1.63
2022-10-04T13:37:16.454Z,1.70
2022-10-04T13:40:05.028Z,1.20
2022-10-04T13:42:53.531Z,1.55
2022-10-04T13:45:43.963Z,1.85
2022-10-04T13:48:29.814Z,2.10
2022-10-04T13:51:14.988Z,1.45
2022-10-04T13:54:37.993Z,1.33
2022-10-04T13:57:29.752Z,1.63
2022-10-04T14:00:05.650Z,1.40
2022-10-04T14:02:49.785Z,1.00
2022-10-04T14:05:39.727Z,1.60
2022-10-04T14:08:29.027Z,1.13
2022-10-04T14:11:08.129Z,1.20
2022-10-04T14:13:48.969Z,1.10
2022-10-04T14:16:43.296Z,1.30
2022-10-04T14:19:50.291Z,1.20
2022-10-04T14:22:48.908Z,0.82
2022-10-04T14:25:51.830Z,1.20
2022-10-04T14:28:43.768Z,1.20
2022-10-04T14:31:46.922Z,1.07
2022-10-04T14:34:38.911Z,0.93
2022-10-04T14:37:38.337Z,1.20
2022-10-04T14:40:39.011Z,1.10
2022-10-04T14:43:43.288Z,1.33
2022-10-04T14:46:47.009Z,1.20
2022-10-04T14:49:51.824Z,0.90
2022-10-04T14:52:27.654Z,1.20
2022-10-04T14:55:03.828Z,1.60
2022-10-04T14:58:16.291Z,1.38
2022-10-04T15:01:04.702Z,1.80
2022-10-04T15:03:39.066Z,1.60
2022-10-04T15:06:10.809Z,1.33
2022-10-04T15:08:51.850Z,1.30
2022-10-04T15:11:20.209Z,1.33
2022-10-04T15:14:02.268Z,1.37
2022-10-04T15:16:29.044Z,1.60
2022-10-04T15:19:20.268Z,1.30
2022-10-04T15:22:09.792Z,1.33
2022-10-04T15:24:42.608Z,1.30
2022-10-04T15:27:38.669Z,1.37
2022-10-04T15:30:30.969Z,1.33
2022-10-04T15:33:07.809Z,1.50
2022-10-04T15:36:00.453Z,1.50
2022-10-04T15:38:32.763Z,1.60
2022-10-04T15:41:03.905Z,1.53
2022-10-04T15:43:57.812Z,1.38
2022-10-04T15:46:56.290Z,1.50
2022-10-04T15:49:28.913Z,1.40
2022-10-04T15:52:08.473Z,1.58
2022-10-04T15:55:05.849Z,1.70
2022-10-04T15:57:47.913Z,1.73
2022-10-04T16:00:21.187Z,1.35
2022-10-04T16:03:11.051Z,1.77
2022-10-04T16:06:02.155Z,1.42
2022-10-04T16:08:52.007Z,1.67
2022-10-04T16:11:25.821Z,1.77
2022-10-04T16:13:54.727Z,1.90
2022-10-04T16:16:51.586Z,1.40
2022-10-04T16:19:52.156Z,1.52
2022-10-04T16:22:32.537Z,1.63
2022-10-04T16:25:17.748Z,1.70
2022-10-04T16:27:56.717Z,2.00
2022-10-04T16:30:46.398Z,2.30
2022-10-04T16:33:42.508Z,2.00
2022-10-04T16:36:14.667Z,1.70
2022-10-04T16:39:08.031Z,2.03
2022-10-04T16:41:44.422Z,1.75
2022-10-04T16:44:49.947Z,1.77
2022-10-04T16:47:39.642Z,2.05
2022-10-04T16:50:10.467Z,2.20
2022-10-04T16:52:50.804Z,2.10
2022-10-04T16:55:28.308Z,2.50
2022-10-04T16:58:37.714Z,2.30
2022-10-04T17:01:23.079Z,2.40
2022-10-04T17:03:54.586Z,2.50
2022-10-04T17:06:31.232Z,2.85
2022-10-04T17:09:19.648Z,2.78
2022-10-04T17:12:08.788Z,3.20
2022-10-04T17:15:14.027Z,2.92
2022-10-04T17:17:47.463Z,3.07
2022-10-04T17:20:32.695Z,3.10
2022-10-04T17:23:37.814Z,3.30
2022-10-04T17:26:04.573Z,3.45
2022-10-04T17:29:04.154Z,3.28
2022-10-04T17:31:41.311Z,3.10
2022-10-04T17:34:27.412Z,3.13
2022-10-04T17:37:17.172Z,3.08
2022-10-04T17:40:11.816Z,3.30
2022-10-04T17:42:57.848Z,3.00
2022-10-04T17:45:48.928Z,3.40
2022-10-04T17:48:47.993Z,3.10
2022-10-04T17:51:39.193Z,3.20
2022-10-04T17:54:35.097Z,3.20
2022-10-04T17:57:04.895Z,3.38
2022-10-04T17:59:39.511Z,3.20
2022-10-04T18:02:18.528Z,2.97
2022-10-04T18:04:57.017Z,2.67
2022-10-04T18:07:28.853Z,3.20
2022-10-04T18:09:59.093Z,3.00
2022-10-04T18:12:46.179Z,2.97
2022-10-04T18:15:21.273Z,3.05
2022-10-04T18:17:49.012Z,3.05
2022-10-04T18:20:28.215Z,2.65
2022-10-04T18:23:22.069Z,2.67
2022-10-04T18:25:49.120Z,3.10
2022-10-04T18:28:20.904Z,2.90
2022-10-04T18:30:51.457Z,3.30
2022-10-04T18:33:26.425Z,2.78
2022-10-04T18:36:04.871Z,2.85
2022-10-04T18:38:33.794Z,3.23
2022-10-04T18:41:16.015Z,3.10
2022-10-04T18:43:59.735Z,3.47
2022-10-04T18:46:28.903Z,3.33
2022-10-04T18:49:21.151Z,3.70
2022-10-04T18:52:09.788Z,3.20
2022-10-04T18:54:54.932Z,3.40
2022-10-04T18:57:32.149Z,3.55
2022-10-04T19:00:33.105Z,3.90
2022-10-04T19:03:07.869Z,3.80
2022-10-04T19:05:43.729Z,4.33
2022-10-04T19:08:33.991Z,3.63
2022-10-04T19:11:22.008Z,4.13
2022-10-04T19:13:57.692Z,3.97
2022-10-04T19:16:50.812Z,3.75
2022-10-04T19:19:26.769Z,3.60
2022-10-04T19:22:03.376Z,4.05
2022-10-04T19:24:37.395Z,4.43
2022-10-04T19:27:45.199Z,4.43
2022-10-04T19:30:23.694Z,4.10
2022-10-04T19:33:14.214Z,4.13
2022-10-04T19:35:56.414Z,4.03
2022-10-04T19:38:53.692Z,4.05
2022-10-04T19:41:37.837Z,4.22
2022-10-04T19:44:29.151Z,4.03
2022-10-04T19:47:16.395Z,3.97
2022-10-04T19:49:57.131Z,4.07
2022-10-04T19:52:38.990Z,4.45
2022-10-04T19:55:20.576Z,3.75
2022-10-04T19:57:51.495Z,3.75
2022-10-04T20:00:20.370Z,4.00
2022-10-04T20:02:48.858Z,4.30
2022-10-04T20:05:29.667Z,3.90
2022-10-04T20:08:01.594Z,4.07
2022-10-04T20:10:34.835Z,4.20
2022-10-04T20:13:21.554Z,4.27
2022-10-04T20:16:00.417Z,4.45
2022-10-04T20:18:33.587Z,3.60
2022-10-04T20:21:01.200Z,4.18
2022-10-04T20:23:47.793Z,4.68
2022-10-04T20:26:55.515Z,4.10
2022-10-04T20:29:41.127Z,4.20
2022-10-04T20:32:09.152Z,3.90
2022-10-04T20:34:38.787Z,4.10
2022-10-04T20:37:06.688Z,4.53
2022-10-04T20:39:40.129Z,4.17
2022-10-04T20:42:30.027Z,3.90
2022-10-04T20:45:09.333Z,4.30
2022-10-04T20:47:40.009Z,3.75
2022-10-04T20:50:29.370Z,4.38
2022-10-04T20:52:58.569Z,4.07
2022-10-04T20:55:46.175Z,3.78
2022-10-04T20:58:33.113Z,3.90
2022-10-04T21:01:39.047Z,3.85
2022-10-04T21:04:32.913Z,4.25
2022-10-04T21:07:05.791Z,3.80
2022-10-04T21:09:33.630Z,3.80
2022-10-04T21:12:00.748Z,3.92
2022-10-04T21:14:31.548Z,3.80
2022-10-04T21:17:03.089Z,3.33
2022-10-04T21:19:33.245Z,3.23
2022-10-04T21:22:04.289Z,3.60
2022-10-04T21:24:59.392Z,3.75
2022-10-04T21:27:31.147Z,3.95
2022-10-04T21:29:58.170Z,3.72
2022-10-04T21:32:25.671Z,3.60
2022-10-04T21:34:54.186Z,3.75
2022-10-04T21:37:21.740Z,4.30
2022-10-04T21:39:48.623Z,3.72
2022-10-04T21:42:15.690Z,4.13
2022-10-04T21:44:42.568Z,4.63
2022-10-04T21:47:09.609Z,4.43
2022-10-04T21:49:36.476Z,3.78
2022-10-04T21:52:03.492Z,3.92
2022-10-04T21:54:30.313Z,3.88
2022-10-04T21:56:57.090Z,3.97
2022-10-04T21:59:23.969Z,3.92
2022-10-04T22:01:50.768Z,3.90
2022-10-04T22:04:17.773Z,3.97
2022-10-04T22:06:45.146Z,3.70
2022-10-04T22:09:12.107Z,3.63
2022-10-04T22:11:38.934Z,3.55
2022-10-04T22:14:05.750Z,3.75
2022-10-04T22:16:32.657Z,3.50
2022-10-04T22:18:59.547Z,4.03
2022-10-04T22:21:26.454Z,3.63
2022-10-04T22:23:53.328Z,3.45
2022-10-04T22:26:21.652Z,3.97
2022-10-04T22:28:50.329Z,3.63
2022-10-04T22:31:22.163Z,3.83
2022-10-04T22:33:49.978Z,3.50
2022-10-04T22:36:23.929Z,3.63
2022-10-04T22:38:57.029Z,3.35
2022-10-04T22:41:29.609Z,3.58
2022-10-04T22:43:57.749Z,3.42
2022-10-04T22:46:25.451Z,3.20
2022-10-04T22:48:52.328Z,2.97
2022-10-04T22:51:19.169Z,3.30
2022-10-04T22:53:46.868Z,3.58
2022-10-04T22:56:14.271Z,3.42
2022-10-04T22:58:41.829Z,3.20
2022-10-04T23:01:18.353Z,3.30
2022-10-04T23:03:46.280Z,2.75
2022-10-04T23:06:14.628Z,3.25
2022-10-04T23:08:42.009Z,3.60
2022-10-04T23:11:09.091Z,2.90
2022-10-04T23:13:35.970Z,3.00
2022-10-04T23:16:18.680Z,3.00
2022-10-04T23:18:45.629Z,2.80
2022-10-04T23:21:20.951Z,3.10
2022-10-04T23:23:48.215Z,2.97
2022-10-04T23:26:24.630Z,3.33
2022-10-04T23:28:51.607Z,3.00
2022-10-04T23:31:25.722Z,3.00
2022-10-04T23:33:55.938Z,2.90
2022-10-04T23:36:23.029Z,3.30
2022-10-04T23:38:52.149Z,3.20
2022-10-04T23:41:18.983Z,3.50
2022-10-04T23:43:46.568Z,2.90
2022-10-04T23:46:18.625Z,2.80
2022-10-04T23:48:45.610Z,3.10
2022-10-04T23:51:13.429Z,2.72
2022-10-04T23:53:40.371Z,2.90
2022-10-04T23:56:21.529Z,2.63
2022-10-04T23:58:48.409Z,2.65
